sensor_id;sensor_type;location;lat;lon;timestamp;temperature;humidity
16038;DHT22;8123;50.906;6.172;2023-12-04T00:02:03;1.80;1.00
16038;DHT22;8123;50.906;6.172;2023-12-04T00:04:29;1.80;1.00
16038;DHT22;8123;50.906;6.172;2023-12-04T00:06:54;1.70;1.00
16038;DHT22;8123;50.906;6.172;2023-12-04T00:09:20;1.70;1.00
16038;DHT22;8123;50.906;6.172;2023-12-04T00:11:46;1.70;1.00
16038;DHT22;8123;50.906;6.172;2023-12-04T00:14:12;1.60;1.00
16038;DHT22;8123;50.906;6.172;2023-12-04T00:16:37;1.60;1.00
16038;DHT22;8123;50.906;6.172;2023-12-04T00:19:03;1.60;1.00
16038;DHT22;8123;50.906;6.172;2023-12-04T00:21:29;1.50;1.00
16038;DHT22;8123;50.906;6.172;2023-12-04T00:23:54;1.60;1.00
16038;DHT22;8123;50.906;6.172;2023-12-04T00:26:20;1.60;1.00
16038;DHT22;8123;50.906;6.172;2023-12-04T00:28:45;1.60;1.00
16038;DHT22;8123;50.906;6.172;2023-12-04T00:31:11;1.50;1.00
16038;DHT22;8123;50.906;6.172;2023-12-04T00:33:37;1.50;1.00
16038;DHT22;8123;50.906;6.172;2023-12-04T00:36:03;1.50;1.00
16038;DHT22;8123;50.906;6.172;2023-12-04T00:38:28;1.40;1.00
16038;DHT22;8123;50.906;6.172;2023-12-04T00:40:54;1.40;1.00
16038;DHT22;8123;50.906;6.172;2023-12-04T00:43:19;1.40;1.00
16038;DHT22;8123;50.906;6.172;2023-12-04T00:45:45;1.50;1.00
16038;DHT22;8123;50.906;6.172;2023-12-04T00:48:10;1.60;1.00
16038;DHT22;8123;50.906;6.172;2023-12-04T00:50:36;1.60;1.00
16038;DHT22;8123;50.906;6.172;2023-12-04T00:53:02;1.70;1.00
16038;DHT22;8123;50.906;6.172;2023-12-04T00:55:27;1.50;1.00
16038;DHT22;8123;50.906;6.172;2023-12-04T00:57:53;1.40;1.00
16038;DHT22;8123;50.906;6.172;2023-12-04T01:00:19;1.50;1.00
16038;DHT22;8123;50.906;6.172;2023-12-04T01:02:44;1.40;1.00
16038;DHT22;8123;50.906;6.172;2023-12-04T01:05:10;1.30;1.00
16038;DHT22;8123;50.906;6.172;2023-12-04T01:07:35;1.30;1.00
16038;DHT22;8123;50.906;6.172;2023-12-04T01:10:01;1.30;1.00
16038;DHT22;8123;50.906;6.172;2023-12-04T01:12:27;1.40;1.00
16038;DHT22;8123;50.906;6.172;2023-12-04T01:14:52;1.30;1.00
16038;DHT22;8123;50.906;6.172;2023-12-04T01:17:18;1.40;1.00
16038;DHT22;8123;50.906;6.172;2023-12-04T01:19:44;1.10;1.00
16038;DHT22;8123;50.906;6.172;2023-12-04T01:22:10;1.40;1.00
16038;DHT22;8123;50.906;6.172;2023-12-04T01:24:35;1.40;1.00
16038;DHT22;8123;50.906;6.172;2023-12-04T01:27:01;1.40;1.00
16038;DHT22;8123;50.906;6.172;2023-12-04T01:29:26;1.40;1.00
16038;DHT22;8123;50.906;6.172;2023-12-04T01:31:52;1.40;1.00
16038;DHT22;8123;50.906;6.172;2023-12-04T01:34:18;1.40;1.00
16038;DHT22;8123;50.906;6.172;2023-12-04T01:36:43;1.50;1.00
16038;DHT22;8123;50.906;6.172;2023-12-04T01:39:09;1.40;1.00
16038;DHT22;8123;50.906;6.172;2023-12-04T01:41:34;1.40;1.00
16038;DHT22;8123;50.906;6.172;2023-12-04T01:44:00;1.40;1.00
16038;DHT22;8123;50.906;6.172;2023-12-04T01:46:26;1.40;1.00
16038;DHT22;8123;50.906;6.172;2023-12-04T01:48:52;1.40;1.00
16038;DHT22;8123;50.906;6.172;2023-12-04T01:51:19;1.40;1.00
16038;DHT22;8123;50.906;6.172;2023-12-04T01:53:46;1.40;1.00
16038;DHT22;8123;50.906;6.172;2023-12-04T01:56:14;1.40;1.00
16038;DHT22;8123;50.906;6.172;2023-12-04T01:58:40;1.40;1.00
16038;DHT22;8123;50.906;6.172;2023-12-04T02:01:06;1.30;1.00
16038;DHT22;8123;50.906;6.172;2023-12-04T02:03:32;1.30;1.00
16038;DHT22;8123;50.906;6.172;2023-12-04T02:06:02;1.40;1.00
16038;DHT22;8123;50.906;6.172;2023-12-04T02:08:29;1.40;1.00
16038;DHT22;8123;50.906;6.172;2023-12-04T02:10:55;1.40;1.00
16038;DHT22;8123;50.906;6.172;2023-12-04T02:13:21;1.30;1.00
16038;DHT22;8123;50.906;6.172;2023-12-04T02:15:49;1.30;1.00
16038;DHT22;8123;50.906;6.172;2023-12-04T02:18:17;1.20;1.00
16038;DHT22;8123;50.906;6.172;2023-12-04T02:20:43;1.20;1.00
16038;DHT22;8123;50.906;6.172;2023-12-04T02:23:09;1.30;1.00
16038;DHT22;8123;50.906;6.172;2023-12-04T02:25:34;1.30;1.00
16038;DHT22;8123;50.906;6.172;2023-12-04T02:28:01;1.30;1.00
16038;DHT22;8123;50.906;6.172;2023-12-04T02:30:30;1.20;1.00
16038;DHT22;8123;50.906;6.172;2023-12-04T02:32:58;1.30;1.00
16038;DHT22;8123;50.906;6.172;2023-12-04T02:35:27;1.20;1.00
16038;DHT22;8123;50.906;6.172;2023-12-04T02:37:54;1.30;1.00
16038;DHT22;8123;50.906;6.172;2023-12-04T02:40:21;1.30;1.00
16038;DHT22;8123;50.906;6.172;2023-12-04T02:42:47;1.30;1.00
16038;DHT22;8123;50.906;6.172;2023-12-04T02:45:13;1.30;1.00
16038;DHT22;8123;50.906;6.172;2023-12-04T02:47:38;1.30;1.00
16038;DHT22;8123;50.906;6.172;2023-12-04T02:50:04;1.20;1.00
16038;DHT22;8123;50.906;6.172;2023-12-04T02:52:30;1.20;1.00
16038;DHT22;8123;50.906;6.172;2023-12-04T02:54:55;1.20;1.00
16038;DHT22;8123;50.906;6.172;2023-12-04T02:57:21;1.20;1.00
16038;DHT22;8123;50.906;6.172;2023-12-04T02:59:47;1.20;1.00
16038;DHT22;8123;50.906;6.172;2023-12-04T03:02:13;1.30;1.00
16038;DHT22;8123;50.906;6.172;2023-12-04T03:04:38;1.20;1.00
16038;DHT22;8123;50.906;6.172;2023-12-04T03:07:04;1.20;1.00
16038;DHT22;8123;50.906;6.172;2023-12-04T03:09:30;1.30;1.00
16038;DHT22;8123;50.906;6.172;2023-12-04T03:11:55;1.20;1.00
16038;DHT22;8123;50.906;6.172;2023-12-04T03:14:21;1.30;1.00
16038;DHT22;8123;50.906;6.172;2023-12-04T03:16:46;1.20;1.00
16038;DHT22;8123;50.906;6.172;2023-12-04T03:19:12;1.20;1.00
16038;DHT22;8123;50.906;6.172;2023-12-04T03:21:37;1.20;1.00
16038;DHT22;8123;50.906;6.172;2023-12-04T03:24:03;1.20;1.00
16038;DHT22;8123;50.906;6.172;2023-12-04T03:26:29;1.20;1.00
16038;DHT22;8123;50.906;6.172;2023-12-04T03:28:54;1.30;1.00
16038;DHT22;8123;50.906;6.172;2023-12-04T03:31:21;1.20;1.00
16038;DHT22;8123;50.906;6.172;2023-12-04T03:33:47;1.20;1.00
16038;DHT22;8123;50.906;6.172;2023-12-04T03:36:13;1.10;1.00
16038;DHT22;8123;50.906;6.172;2023-12-04T03:38:38;1.20;1.00
16038;DHT22;8123;50.906;6.172;2023-12-04T03:41:04;1.30;1.00
16038;DHT22;8123;50.906;6.172;2023-12-04T03:43:29;1.30;1.00
16038;DHT22;8123;50.906;6.172;2023-12-04T03:45:55;1.30;1.00
16038;DHT22;8123;50.906;6.172;2023-12-04T03:48:21;1.30;1.00
16038;DHT22;8123;50.906;6.172;2023-12-04T03:50:46;1.30;1.00
16038;DHT22;8123;50.906;6.172;2023-12-04T03:53:12;1.30;1.00
16038;DHT22;8123;50.906;6.172;2023-12-04T03:55:38;1.20;1.00
16038;DHT22;8123;50.906;6.172;2023-12-04T03:58:03;1.20;1.00
16038;DHT22;8123;50.906;6.172;2023-12-04T04:00:29;1.20;1.00
16038;DHT22;8123;50.906;6.172;2023-12-04T04:02:55;1.20;1.00
16038;DHT22;8123;50.906;6.172;2023-12-04T04:05:21;1.20;1.00
16038;DHT22;8123;50.906;6.172;2023-12-04T04:07:46;1.20;99.90
16038;DHT22;8123;50.906;6.172;2023-12-04T04:10:12;1.20;99.90
16038;DHT22;8123;50.906;6.172;2023-12-04T04:12:38;1.20;99.90
16038;DHT22;8123;50.906;6.172;2023-12-04T04:15:03;1.10;99.90
16038;DHT22;8123;50.906;6.172;2023-12-04T04:17:29;1.10;99.90
16038;DHT22;8123;50.906;6.172;2023-12-04T04:19:55;1.20;99.90
16038;DHT22;8123;50.906;6.172;2023-12-04T04:22:21;1.20;99.90
16038;DHT22;8123;50.906;6.172;2023-12-04T04:24:48;1.10;99.90
16038;DHT22;8123;50.906;6.172;2023-12-04T04:27:14;1.10;1.00
16038;DHT22;8123;50.906;6.172;2023-12-04T04:29:40;1.10;99.90
16038;DHT22;8123;50.906;6.172;2023-12-04T04:32:06;1.10;99.90
16038;DHT22;8123;50.906;6.172;2023-12-04T04:34:31;1.00;99.90
16038;DHT22;8123;50.906;6.172;2023-12-04T04:36:57;1.00;99.90
16038;DHT22;8123;50.906;6.172;2023-12-04T04:39:22;1.00;99.90
16038;DHT22;8123;50.906;6.172;2023-12-04T04:41:48;0.90;99.90
16038;DHT22;8123;50.906;6.172;2023-12-04T04:44:14;1.00;99.90
16038;DHT22;8123;50.906;6.172;2023-12-04T04:46:39;1.00;99.90
16038;DHT22;8123;50.906;6.172;2023-12-04T04:49:05;1.10;99.90
16038;DHT22;8123;50.906;6.172;2023-12-04T04:51:34;1.20;99.90
16038;DHT22;8123;50.906;6.172;2023-12-04T04:54:03;1.10;99.90
16038;DHT22;8123;50.906;6.172;2023-12-04T04:56:29;1.20;99.90
16038;DHT22;8123;50.906;6.172;2023-12-04T04:58:55;1.20;99.90
16038;DHT22;8123;50.906;6.172;2023-12-04T05:01:21;1.20;99.90
16038;DHT22;8123;50.906;6.172;2023-12-04T05:03:46;1.30;99.90
16038;DHT22;8123;50.906;6.172;2023-12-04T05:06:12;1.30;22.00
16038;DHT22;8123;50.906;6.172;2023-12-04T05:08:37;1.40;1.00
16038;DHT22;8123;50.906;6.172;2023-12-04T05:11:04;1.40;1.00
16038;DHT22;8123;50.906;6.172;2023-12-04T05:13:29;1.40;1.00
16038;DHT22;8123;50.906;6.172;2023-12-04T05:15:55;1.40;1.00
16038;DHT22;8123;50.906;6.172;2023-12-04T05:18:20;1.40;1.00
16038;DHT22;8123;50.906;6.172;2023-12-04T05:20:46;1.40;1.00
16038;DHT22;8123;50.906;6.172;2023-12-04T05:23:12;1.50;1.00
16038;DHT22;8123;50.906;6.172;2023-12-04T05:25:37;1.40;99.90
16038;DHT22;8123;50.906;6.172;2023-12-04T05:28:04;1.40;99.90
16038;DHT22;8123;50.906;6.172;2023-12-04T05:30:29;1.40;99.90
16038;DHT22;8123;50.906;6.172;2023-12-04T05:32:55;1.40;99.90
16038;DHT22;8123;50.906;6.172;2023-12-04T05:35:21;1.40;1.00
16038;DHT22;8123;50.906;6.172;2023-12-04T05:37:46;1.40;99.90
16038;DHT22;8123;50.906;6.172;2023-12-04T05:40:12;1.30;99.90
16038;DHT22;8123;50.906;6.172;2023-12-04T05:42:38;1.40;99.90
16038;DHT22;8123;50.906;6.172;2023-12-04T05:45:03;1.40;1.00
16038;DHT22;8123;50.906;6.172;2023-12-04T05:47:29;1.50;58.80
16038;DHT22;8123;50.906;6.172;2023-12-04T05:49:55;1.50;99.90
16038;DHT22;8123;50.906;6.172;2023-12-04T05:52:20;1.50;99.90
16038;DHT22;8123;50.906;6.172;2023-12-04T05:54:46;1.50;1.00
16038;DHT22;8123;50.906;6.172;2023-12-04T05:57:12;1.50;1.00
16038;DHT22;8123;50.906;6.172;2023-12-04T05:59:37;1.50;1.00
16038;DHT22;8123;50.906;6.172;2023-12-04T06:02:03;1.50;1.00
16038;DHT22;8123;50.906;6.172;2023-12-04T06:04:29;1.50;1.00
16038;DHT22;8123;50.906;6.172;2023-12-04T06:06:54;1.50;1.00
16038;DHT22;8123;50.906;6.172;2023-12-04T06:09:20;1.50;1.00
16038;DHT22;8123;50.906;6.172;2023-12-04T06:11:46;1.50;1.00
16038;DHT22;8123;50.906;6.172;2023-12-04T06:14:11;1.50;1.00
16038;DHT22;8123;50.906;6.172;2023-12-04T06:16:37;1.50;1.00
16038;DHT22;8123;50.906;6.172;2023-12-04T06:19:03;1.50;1.00
16038;DHT22;8123;50.906;6.172;2023-12-04T06:21:31;1.40;1.00
16038;DHT22;8123;50.906;6.172;2023-12-04T06:23:57;1.40;1.00
16038;DHT22;8123;50.906;6.172;2023-12-04T06:26:23;1.40;1.00
16038;DHT22;8123;50.906;6.172;2023-12-04T06:28:49;1.40;1.00
16038;DHT22;8123;50.906;6.172;2023-12-04T06:31:15;1.40;85.60
16038;DHT22;8123;50.906;6.172;2023-12-04T06:33:42;1.40;1.00
16038;DHT22;8123;50.906;6.172;2023-12-04T06:36:08;1.40;45.40
16038;DHT22;8123;50.906;6.172;2023-12-04T06:38:37;1.50;99.90
16038;DHT22;8123;50.906;6.172;2023-12-04T06:41:05;1.40;13.60
16038;DHT22;8123;50.906;6.172;2023-12-04T06:43:30;1.50;1.00
16038;DHT22;8123;50.906;6.172;2023-12-04T06:45:57;1.50;1.00
16038;DHT22;8123;50.906;6.172;2023-12-04T06:48:24;1.50;99.90
16038;DHT22;8123;50.906;6.172;2023-12-04T06:50:50;1.50;99.90
16038;DHT22;8123;50.906;6.172;2023-12-04T06:53:15;1.50;99.90
16038;DHT22;8123;50.906;6.172;2023-12-04T06:55:41;1.50;99.90
16038;DHT22;8123;50.906;6.172;2023-12-04T06:58:06;1.60;99.90
16038;DHT22;8123;50.906;6.172;2023-12-04T07:00:32;1.60;99.90
16038;DHT22;8123;50.906;6.172;2023-12-04T07:02:58;1.50;1.00
16038;DHT22;8123;50.906;6.172;2023-12-04T07:05:23;1.50;1.00
16038;DHT22;8123;50.906;6.172;2023-12-04T07:07:49;1.60;1.00
16038;DHT22;8123;50.906;6.172;2023-12-04T07:10:15;1.50;99.90
16038;DHT22;8123;50.906;6.172;2023-12-04T07:12:41;1.60;1.00
16038;DHT22;8123;50.906;6.172;2023-12-04T07:15:08;1.60;1.00
16038;DHT22;8123;50.906;6.172;2023-12-04T07:17:38;1.50;99.90
16038;DHT22;8123;50.906;6.172;2023-12-04T07:20:05;1.50;99.90
16038;DHT22;8123;50.906;6.172;2023-12-04T07:22:32;1.60;1.00
16038;DHT22;8123;50.906;6.172;2023-12-04T07:24:58;1.50;99.90
16038;DHT22;8123;50.906;6.172;2023-12-04T07:27:23;1.60;99.90
16038;DHT22;8123;50.906;6.172;2023-12-04T07:29:49;1.60;1.00
16038;DHT22;8123;50.906;6.172;2023-12-04T07:32:15;1.60;1.00
16038;DHT22;8123;50.906;6.172;2023-12-04T07:34:40;1.60;99.90
16038;DHT22;8123;50.906;6.172;2023-12-04T07:37:06;1.60;51.60
16038;DHT22;8123;50.906;6.172;2023-12-04T07:39:32;1.60;1.00
16038;DHT22;8123;50.906;6.172;2023-12-04T07:41:58;1.60;1.00
16038;DHT22;8123;50.906;6.172;2023-12-04T07:44:23;1.60;51.50
16038;DHT22;8123;50.906;6.172;2023-12-04T07:46:49;1.60;1.00
16038;DHT22;8123;50.906;6.172;2023-12-04T07:49:15;1.60;1.00
16038;DHT22;8123;50.906;6.172;2023-12-04T07:51:40;1.60;1.00
16038;DHT22;8123;50.906;6.172;2023-12-04T07:54:06;1.60;49.40
16038;DHT22;8123;50.906;6.172;2023-12-04T07:56:32;1.60;99.90
16038;DHT22;8123;50.906;6.172;2023-12-04T07:58:57;1.60;99.90
16038;DHT22;8123;50.906;6.172;2023-12-04T08:01:23;1.50;69.10
16038;DHT22;8123;50.906;6.172;2023-12-04T08:03:49;1.50;99.90
16038;DHT22;8123;50.906;6.172;2023-12-04T08:06:15;1.40;99.90
16038;DHT22;8123;50.906;6.172;2023-12-04T08:08:43;1.40;1.00
16038;DHT22;8123;50.906;6.172;2023-12-04T08:11:10;1.40;1.00
16038;DHT22;8123;50.906;6.172;2023-12-04T08:13:35;1.40;99.90
16038;DHT22;8123;50.906;6.172;2023-12-04T08:16:01;1.40;32.80
16038;DHT22;8123;50.906;6.172;2023-12-04T08:18:27;1.40;1.00
16038;DHT22;8123;50.906;6.172;2023-12-04T08:20:52;1.50;1.00
16038;DHT22;8123;50.906;6.172;2023-12-04T08:23:18;1.40;1.00
16038;DHT22;8123;50.906;6.172;2023-12-04T08:25:44;1.40;1.00
16038;DHT22;8123;50.906;6.172;2023-12-04T08:28:10;1.50;99.90
16038;DHT22;8123;50.906;6.172;2023-12-04T08:30:35;1.60;99.90
16038;DHT22;8123;50.906;6.172;2023-12-04T08:33:01;1.60;1.00
16038;DHT22;8123;50.906;6.172;2023-12-04T08:35:27;1.60;1.00
16038;DHT22;8123;50.906;6.172;2023-12-04T08:37:52;1.60;1.00
16038;DHT22;8123;50.906;6.172;2023-12-04T08:40:18;1.60;1.00
16038;DHT22;8123;50.906;6.172;2023-12-04T08:42:43;1.70;1.00
16038;DHT22;8123;50.906;6.172;2023-12-04T08:45:10;1.70;74.40
16038;DHT22;8123;50.906;6.172;2023-12-04T08:47:36;1.70;1.00
16038;DHT22;8123;50.906;6.172;2023-12-04T08:50:02;1.70;1.00
16038;DHT22;8123;50.906;6.172;2023-12-04T08:52:28;1.70;1.00
16038;DHT22;8123;50.906;6.172;2023-12-04T08:54:53;1.70;1.00
16038;DHT22;8123;50.906;6.172;2023-12-04T08:57:20;1.90;94.70
16038;DHT22;8123;50.906;6.172;2023-12-04T08:59:46;2.00;18.80
16038;DHT22;8123;50.906;6.172;2023-12-04T09:02:12;2.00;99.90
16038;DHT22;8123;50.906;6.172;2023-12-04T09:04:37;2.00;99.90
16038;DHT22;8123;50.906;6.172;2023-12-04T09:07:03;2.10;51.30
16038;DHT22;8123;50.906;6.172;2023-12-04T09:09:29;2.10;1.00
16038;DHT22;8123;50.906;6.172;2023-12-04T09:11:54;2.20;1.00
16038;DHT22;8123;50.906;6.172;2023-12-04T09:14:20;2.20;82.00
16038;DHT22;8123;50.906;6.172;2023-12-04T09:16:46;2.20;19.60
16038;DHT22;8123;50.906;6.172;2023-12-04T09:19:11;2.20;1.00
16038;DHT22;8123;50.906;6.172;2023-12-04T09:21:37;2.20;1.00
16038;DHT22;8123;50.906;6.172;2023-12-04T09:24:02;2.20;1.00
16038;DHT22;8123;50.906;6.172;2023-12-04T09:26:28;2.30;1.00
16038;DHT22;8123;50.906;6.172;2023-12-04T09:28:54;2.30;1.00
16038;DHT22;8123;50.906;6.172;2023-12-04T09:31:20;2.30;1.00
16038;DHT22;8123;50.906;6.172;2023-12-04T09:33:45;2.40;1.00
16038;DHT22;8123;50.906;6.172;2023-12-04T09:36:12;2.40;1.00
16038;DHT22;8123;50.906;6.172;2023-12-04T09:38:38;2.50;1.00
16038;DHT22;8123;50.906;6.172;2023-12-04T09:41:06;2.40;99.90
16038;DHT22;8123;50.906;6.172;2023-12-04T09:43:32;2.50;99.90
16038;DHT22;8123;50.906;6.172;2023-12-04T09:45:59;2.50;99.90
16038;DHT22;8123;50.906;6.172;2023-12-04T09:48:26;2.50;99.90
16038;DHT22;8123;50.906;6.172;2023-12-04T09:50:52;2.50;99.90
16038;DHT22;8123;50.906;6.172;2023-12-04T09:53:19;2.50;99.90
16038;DHT22;8123;50.906;6.172;2023-12-04T09:55:51;2.60;99.90
16038;DHT22;8123;50.906;6.172;2023-12-04T09:58:19;2.50;99.90
16038;DHT22;8123;50.906;6.172;2023-12-04T10:00:46;2.60;1.00
16038;DHT22;8123;50.906;6.172;2023-12-04T10:03:13;2.60;99.90
16038;DHT22;8123;50.906;6.172;2023-12-04T10:05:45;2.60;99.90
16038;DHT22;8123;50.906;6.172;2023-12-04T10:08:11;2.60;42.30
16038;DHT22;8123;50.906;6.172;2023-12-04T10:10:36;2.60;99.90
16038;DHT22;8123;50.906;6.172;2023-12-04T10:13:02;2.60;1.00
16038;DHT22;8123;50.906;6.172;2023-12-04T10:15:28;2.60;1.00
16038;DHT22;8123;50.906;6.172;2023-12-04T10:17:54;2.60;1.00
16038;DHT22;8123;50.906;6.172;2023-12-04T10:20:20;2.60;1.00
16038;DHT22;8123;50.906;6.172;2023-12-04T10:23:02;2.50;1.00
16038;DHT22;8123;50.906;6.172;2023-12-04T10:25:29;2.60;99.90
16038;DHT22;8123;50.906;6.172;2023-12-04T10:28:09;2.60;99.90
16038;DHT22;8123;50.906;6.172;2023-12-04T10:30:36;2.70;1.00
16038;DHT22;8123;50.906;6.172;2023-12-04T10:33:05;2.80;6.90
16038;DHT22;8123;50.906;6.172;2023-12-04T10:35:36;2.70;1.00
16038;DHT22;8123;50.906;6.172;2023-12-04T10:38:02;2.80;99.90
16038;DHT22;8123;50.906;6.172;2023-12-04T10:40:29;2.80;99.90
16038;DHT22;8123;50.906;6.172;2023-12-04T10:45:35;2.90;99.90
16038;DHT22;8123;50.906;6.172;2023-12-04T10:48:02;2.90;99.90
16038;DHT22;8123;50.906;6.172;2023-12-04T10:50:32;2.90;1.00
16038;DHT22;8123;50.906;6.172;2023-12-04T10:53:01;3.00;1.00
16038;DHT22;8123;50.906;6.172;2023-12-04T10:55:26;2.90;1.00
16038;DHT22;8123;50.906;6.172;2023-12-04T10:57:54;3.00;1.00
16038;DHT22;8123;50.906;6.172;2023-12-04T11:00:20;3.10;1.00
16038;DHT22;8123;50.906;6.172;2023-12-04T11:02:48;3.10;1.00
16038;DHT22;8123;50.906;6.172;2023-12-04T11:05:16;3.10;1.00
16038;DHT22;8123;50.906;6.172;2023-12-04T11:08:00;3.20;99.90
16038;DHT22;8123;50.906;6.172;2023-12-04T11:10:29;3.20;11.40
16038;DHT22;8123;50.906;6.172;2023-12-04T11:13:17;3.10;99.90
16038;DHT22;8123;50.906;6.172;2023-12-04T11:15:48;3.20;99.90
16038;DHT22;8123;50.906;6.172;2023-12-04T11:18:15;3.20;99.90
16038;DHT22;8123;50.906;6.172;2023-12-04T11:20:59;3.30;99.90
16038;DHT22;8123;50.906;6.172;2023-12-04T11:23:27;3.30;99.90
16038;DHT22;8123;50.906;6.172;2023-12-04T11:25:53;3.30;1.00
16038;DHT22;8123;50.906;6.172;2023-12-04T11:28:20;3.40;1.00
16038;DHT22;8123;50.906;6.172;2023-12-04T11:30:47;3.50;1.00
16038;DHT22;8123;50.906;6.172;2023-12-04T11:33:13;3.50;1.00
16038;DHT22;8123;50.906;6.172;2023-12-04T11:35:39;3.50;1.00
16038;DHT22;8123;50.906;6.172;2023-12-04T11:38:05;3.50;1.00
16038;DHT22;8123;50.906;6.172;2023-12-04T11:40:32;3.60;1.00
16038;DHT22;8123;50.906;6.172;2023-12-04T11:42:58;3.60;1.00
16038;DHT22;8123;50.906;6.172;2023-12-04T11:45:23;3.70;1.00
16038;DHT22;8123;50.906;6.172;2023-12-04T11:47:57;3.70;99.90
16038;DHT22;8123;50.906;6.172;2023-12-04T11:50:26;4.00;99.90
16038;DHT22;8123;50.906;6.172;2023-12-04T11:52:51;3.70;99.90
16038;DHT22;8123;50.906;6.172;2023-12-04T11:55:21;3.80;99.90
16038;DHT22;8123;50.906;6.172;2023-12-04T11:57:49;3.80;99.90
16038;DHT22;8123;50.906;6.172;2023-12-04T12:05:22;3.90;1.00
16038;DHT22;8123;50.906;6.172;2023-12-04T12:07:48;3.90;1.00
16038;DHT22;8123;50.906;6.172;2023-12-04T12:10:15;3.90;1.00
16038;DHT22;8123;50.906;6.172;2023-12-04T12:12:42;4.00;1.00
16038;DHT22;8123;50.906;6.172;2023-12-04T12:15:09;4.20;99.90
16038;DHT22;8123;50.906;6.172;2023-12-04T12:17:35;4.00;99.90
16038;DHT22;8123;50.906;6.172;2023-12-04T12:20:02;3.90;1.00
16038;DHT22;8123;50.906;6.172;2023-12-04T12:22:33;3.90;99.90
16038;DHT22;8123;50.906;6.172;2023-12-04T12:24:58;3.90;99.90
16038;DHT22;8123;50.906;6.172;2023-12-04T12:27:25;3.90;99.90
16038;DHT22;8123;50.906;6.172;2023-12-04T12:29:50;3.90;99.90
16038;DHT22;8123;50.906;6.172;2023-12-04T12:32:16;4.00;99.90
16038;DHT22;8123;50.906;6.172;2023-12-04T12:34:42;4.00;99.90
16038;DHT22;8123;50.906;6.172;2023-12-04T12:37:08;4.00;99.90
16038;DHT22;8123;50.906;6.172;2023-12-04T12:39:34;4.00;99.90
16038;DHT22;8123;50.906;6.172;2023-12-04T12:42:00;4.00;1.00
16038;DHT22;8123;50.906;6.172;2023-12-04T12:44:27;3.90;1.00
16038;DHT22;8123;50.906;6.172;2023-12-04T12:46:53;3.80;99.90
16038;DHT22;8123;50.906;6.172;2023-12-04T12:49:20;3.80;1.00
16038;DHT22;8123;50.906;6.172;2023-12-04T12:51:48;3.80;1.00
16038;DHT22;8123;50.906;6.172;2023-12-04T12:54:14;3.70;1.00
16038;DHT22;8123;50.906;6.172;2023-12-04T12:56:40;3.70;1.00
16038;DHT22;8123;50.906;6.172;2023-12-04T12:59:05;3.80;1.00
16038;DHT22;8123;50.906;6.172;2023-12-04T13:01:32;3.70;1.00
16038;DHT22;8123;50.906;6.172;2023-12-04T13:03:59;3.70;1.00
16038;DHT22;8123;50.906;6.172;2023-12-04T13:06:25;3.70;1.00
16038;DHT22;8123;50.906;6.172;2023-12-04T13:08:51;3.60;1.00
16038;DHT22;8123;50.906;6.172;2023-12-04T13:11:16;3.60;1.00
16038;DHT22;8123;50.906;6.172;2023-12-04T13:13:44;3.50;1.00
16038;DHT22;8123;50.906;6.172;2023-12-04T13:16:10;3.50;1.00
16038;DHT22;8123;50.906;6.172;2023-12-04T13:18:35;3.40;1.00
16038;DHT22;8123;50.906;6.172;2023-12-04T13:21:03;3.50;1.00
16038;DHT22;8123;50.906;6.172;2023-12-04T13:23:29;3.40;1.00
16038;DHT22;8123;50.906;6.172;2023-12-04T13:25:54;3.50;1.00
16038;DHT22;8123;50.906;6.172;2023-12-04T13:28:20;3.50;1.00
16038;DHT22;8123;50.906;6.172;2023-12-04T13:30:46;3.30;1.00
16038;DHT22;8123;50.906;6.172;2023-12-04T13:33:12;3.30;1.00
16038;DHT22;8123;50.906;6.172;2023-12-04T13:35:37;3.30;1.00
16038;DHT22;8123;50.906;6.172;2023-12-04T13:38:03;3.30;1.00
16038;DHT22;8123;50.906;6.172;2023-12-04T13:40:32;3.20;1.00
16038;DHT22;8123;50.906;6.172;2023-12-04T13:43:00;3.30;42.30
16038;DHT22;8123;50.906;6.172;2023-12-04T13:45:44;3.30;26.40
16038;DHT22;8123;50.906;6.172;2023-12-04T13:48:10;3.20;55.70
16038;DHT22;8123;50.906;6.172;2023-12-04T13:50:36;3.10;1.00
16038;DHT22;8123;50.906;6.172;2023-12-04T13:53:01;3.00;46.30
16038;DHT22;8123;50.906;6.172;2023-12-04T13:55:27;3.00;99.90
16038;DHT22;8123;50.906;6.172;2023-12-04T13:58:22;2.90;99.90
16038;DHT22;8123;50.906;6.172;2023-12-04T14:01:14;2.90;99.90
16038;DHT22;8123;50.906;6.172;2023-12-04T14:03:43;2.90;99.90
16038;DHT22;8123;50.906;6.172;2023-12-04T14:06:10;2.90;99.90
16038;DHT22;8123;50.906;6.172;2023-12-04T14:08:36;3.00;99.90
16038;DHT22;8123;50.906;6.172;2023-12-04T14:11:03;3.00;99.90
16038;DHT22;8123;50.906;6.172;2023-12-04T14:13:29;3.00;99.90
16038;DHT22;8123;50.906;6.172;2023-12-04T14:15:55;2.90;99.90
16038;DHT22;8123;50.906;6.172;2023-12-04T14:18:22;2.90;99.90
16038;DHT22;8123;50.906;6.172;2023-12-04T14:20:48;2.90;99.90
16038;DHT22;8123;50.906;6.172;2023-12-04T14:23:14;2.80;99.90
16038;DHT22;8123;50.906;6.172;2023-12-04T14:25:40;2.80;99.90
16038;DHT22;8123;50.906;6.172;2023-12-04T14:28:06;2.70;99.90
16038;DHT22;8123;50.906;6.172;2023-12-04T14:30:32;2.70;1.00
16038;DHT22;8123;50.906;6.172;2023-12-04T14:32:58;2.70;1.00
16038;DHT22;8123;50.906;6.172;2023-12-04T14:35:24;2.60;1.00
16038;DHT22;8123;50.906;6.172;2023-12-04T14:37:49;2.50;1.00
16038;DHT22;8123;50.906;6.172;2023-12-04T14:40:18;2.50;1.00
16038;DHT22;8123;50.906;6.172;2023-12-04T14:42:45;2.50;1.00
16038;DHT22;8123;50.906;6.172;2023-12-04T14:45:12;2.50;1.00
16038;DHT22;8123;50.906;6.172;2023-12-04T14:47:37;2.50;1.00
16038;DHT22;8123;50.906;6.172;2023-12-04T14:50:04;2.50;1.00
16038;DHT22;8123;50.906;6.172;2023-12-04T14:52:30;2.50;1.00
16038;DHT22;8123;50.906;6.172;2023-12-04T14:54:57;2.40;1.00
16038;DHT22;8123;50.906;6.172;2023-12-04T14:57:35;2.40;1.00
16038;DHT22;8123;50.906;6.172;2023-12-04T15:00:10;2.40;1.00
16038;DHT22;8123;50.906;6.172;2023-12-04T15:02:54;2.30;1.00
16038;DHT22;8123;50.906;6.172;2023-12-04T15:05:39;2.30;1.00
16038;DHT22;8123;50.906;6.172;2023-12-04T15:08:05;2.40;1.00
16038;DHT22;8123;50.906;6.172;2023-12-04T15:10:53;2.40;1.00
16038;DHT22;8123;50.906;6.172;2023-12-04T15:13:37;2.40;1.00
16038;DHT22;8123;50.906;6.172;2023-12-04T15:16:09;2.50;1.00
16038;DHT22;8123;50.906;6.172;2023-12-04T15:18:37;2.40;1.00
16038;DHT22;8123;50.906;6.172;2023-12-04T15:21:18;2.50;1.00
16038;DHT22;8123;50.906;6.172;2023-12-04T15:23:44;2.50;1.00
16038;DHT22;8123;50.906;6.172;2023-12-04T15:26:10;2.40;1.00
16038;DHT22;8123;50.906;6.172;2023-12-04T15:28:36;2.40;1.00
16038;DHT22;8123;50.906;6.172;2023-12-04T15:31:02;2.30;1.00
16038;DHT22;8123;50.906;6.172;2023-12-04T15:33:28;2.30;1.00
16038;DHT22;8123;50.906;6.172;2023-12-04T15:35:54;2.40;1.00
16038;DHT22;8123;50.906;6.172;2023-12-04T15:38:20;2.40;1.00
16038;DHT22;8123;50.906;6.172;2023-12-04T15:40:46;2.40;1.00
16038;DHT22;8123;50.906;6.172;2023-12-04T15:43:12;2.40;1.00
16038;DHT22;8123;50.906;6.172;2023-12-04T15:45:38;2.40;1.00
16038;DHT22;8123;50.906;6.172;2023-12-04T15:48:04;2.30;1.00
16038;DHT22;8123;50.906;6.172;2023-12-04T15:50:29;2.30;1.00
16038;DHT22;8123;50.906;6.172;2023-12-04T15:52:58;2.40;1.00
16038;DHT22;8123;50.906;6.172;2023-12-04T15:55:24;2.40;1.00
16038;DHT22;8123;50.906;6.172;2023-12-04T15:57:52;2.40;1.00
16038;DHT22;8123;50.906;6.172;2023-12-04T16:00:24;2.40;1.00
16038;DHT22;8123;50.906;6.172;2023-12-04T16:02:50;2.40;1.00
16038;DHT22;8123;50.906;6.172;2023-12-04T16:05:16;2.40;1.00
16038;DHT22;8123;50.906;6.172;2023-12-04T16:07:42;2.40;1.00
16038;DHT22;8123;50.906;6.172;2023-12-04T16:10:09;2.40;1.00
16038;DHT22;8123;50.906;6.172;2023-12-04T16:12:36;2.40;1.00
16038;DHT22;8123;50.906;6.172;2023-12-04T16:15:05;2.40;4.40
16038;DHT22;8123;50.906;6.172;2023-12-04T16:17:36;2.40;7.60